KCTB

Cut Bank International Airport

Cut Bank, Montana, USA

KCTB 110856Z AUTO 33007KT 10SM CLR M02/M10 A3040 RMK AO2 SLP311 T10171100 51007

Observed Flight Rules
Dec-11 @ 08:56 UTC (21 minutes ago) Visual Flight Rules
Wind Visibility Clouds
330° at 7 knots 10 miles
  • Clear skies
Temperatures Readings
Current -2°C / 28°F
Dewpoint -10°C / 14°F
Humidity 55%
Altimeter 30.4" Hg
Pressure 1031.1 hPa
Elevation 1175
Observed Flight Rules
Dec-11 @ 08:56 UTC
(21 minutes ago)
VFR
Wind Visibility
330° at 7 knots 10 miles
Clouds
  • Clear skies
Temperature Dewpoint
-2°C / 28°F -10°C / 14°F
Humidity Altimeter Pressure
55% 30.4" Hg 1031.1 hPa